createdAt,value
2024-05-09T00:00:14.009Z,6
2024-05-09T00:01:20.288Z,5
2024-05-09T00:02:26.553Z,6
2024-05-09T00:03:31.892Z,7
2024-05-09T00:04:38.148Z,7
2024-05-09T00:05:44.387Z,8
2024-05-09T00:06:50.658Z,8
2024-05-09T00:07:56.962Z,7
2024-05-09T00:09:03.202Z,7
2024-05-09T00:10:09.491Z,8
2024-05-09T00:11:15.736Z,7
2024-05-09T00:12:22.104Z,7
2024-05-09T00:13:28.324Z,7
2024-05-09T00:14:34.560Z,8
2024-05-09T00:15:40.918Z,7
2024-05-09T00:16:47.103Z,7
2024-05-09T00:17:52.727Z,7
2024-05-09T00:18:58.734Z,6
2024-05-09T00:20:04.934Z,8
2024-05-09T00:21:11.450Z,7
2024-05-09T00:22:17.482Z,7
2024-05-09T00:23:23.786Z,8
2024-05-09T00:24:30.084Z,7
2024-05-09T00:25:36.290Z,7
2024-05-09T00:26:42.567Z,7
2024-05-09T00:27:48.842Z,8
2024-05-09T00:28:55.173Z,9
2024-05-09T00:30:01.386Z,8
2024-05-09T00:31:07.660Z,5
2024-05-09T00:32:12.932Z,6
2024-05-09T00:33:19.232Z,4
2024-05-09T00:34:25.500Z,5
2024-05-09T00:35:31.955Z,6
2024-05-09T00:36:38.025Z,5
2024-05-09T00:37:44.288Z,7
2024-05-09T00:38:50.570Z,5
2024-05-09T00:39:56.868Z,6
2024-05-09T00:41:03.113Z,6
2024-05-09T00:42:09.403Z,6
2024-05-09T00:43:15.684Z,5
2024-05-09T00:44:21.931Z,6
2024-05-09T00:45:28.201Z,4
2024-05-09T00:46:33.488Z,5
2024-05-09T00:47:39.769Z,5
2024-05-09T00:48:46.045Z,4
2024-05-09T00:49:52.313Z,4
2024-05-09T00:50:58.584Z,5
2024-05-09T00:52:04.857Z,6
2024-05-09T00:53:11.141Z,5
2024-05-09T00:54:17.399Z,6
2024-05-09T00:55:23.666Z,6
2024-05-09T00:56:29.960Z,5
2024-05-09T00:57:36.224Z,5
2024-05-09T00:58:42.481Z,6
2024-05-09T00:59:48.749Z,5
2024-05-09T01:00:54.038Z,5
2024-05-09T01:02:00.309Z,6
2024-05-09T01:03:06.591Z,6
2024-05-09T01:04:12.868Z,5
2024-05-09T01:05:19.129Z,7
2024-05-09T01:06:25.414Z,6
2024-05-09T01:07:31.678Z,6
2024-05-09T01:08:37.983Z,5
2024-05-09T01:09:44.214Z,5
2024-05-09T01:10:50.487Z,6
2024-05-09T01:11:56.893Z,7
2024-05-09T01:13:03.052Z,6
2024-05-09T01:14:10.252Z,6
2024-05-09T01:15:14.617Z,6
2024-05-09T01:16:20.895Z,6
2024-05-09T01:17:27.139Z,5
2024-05-09T01:18:33.407Z,5
2024-05-09T01:19:39.681Z,6
2024-05-09T01:20:45.951Z,7
2024-05-09T01:21:52.223Z,7
2024-05-09T01:22:58.509Z,6
2024-05-09T01:24:04.765Z,5
2024-05-09T01:25:11.041Z,4
2024-05-09T01:26:17.305Z,5
2024-05-09T01:27:23.687Z,4
2024-05-09T01:28:29.860Z,4
2024-05-09T01:29:35.160Z,3
2024-05-09T01:30:41.442Z,5
2024-05-09T01:31:47.683Z,5
2024-05-09T01:32:53.954Z,4
2024-05-09T01:34:00.234Z,4
2024-05-09T01:35:06.497Z,4
2024-05-09T01:36:12.787Z,3
2024-05-09T01:37:19.059Z,3
2024-05-09T01:38:25.347Z,5
2024-05-09T01:39:31.601Z,4
2024-05-09T01:40:37.874Z,4
2024-05-09T01:41:44.132Z,5
2024-05-09T01:42:50.412Z,5
2024-05-09T01:43:56.673Z,5
2024-05-09T01:45:01.967Z,5
2024-05-09T01:46:08.236Z,6
2024-05-09T01:47:14.511Z,5
2024-05-09T01:48:20.780Z,4
2024-05-09T01:49:26.075Z,3
2024-05-09T01:50:32.345Z,3
2024-05-09T01:51:38.608Z,5
2024-05-09T01:52:44.901Z,6
2024-05-09T01:53:51.165Z,5
2024-05-09T01:54:57.433Z,4
2024-05-09T01:56:03.710Z,5
2024-05-09T01:57:09.979Z,4
2024-05-09T01:58:16.252Z,4
2024-05-09T01:59:22.522Z,5
2024-05-09T02:00:28.801Z,3
2024-05-09T02:01:35.061Z,2
2024-05-09T02:02:41.336Z,4
2024-05-09T02:03:46.621Z,2
2024-05-09T02:04:52.898Z,4
2024-05-09T02:05:59.169Z,5
2024-05-09T02:07:05.449Z,5
2024-05-09T02:08:11.714Z,4
2024-05-09T02:09:17.990Z,5
2024-05-09T02:10:24.262Z,5
2024-05-09T02:11:30.530Z,4
2024-05-09T02:12:36.807Z,2
2024-05-09T02:13:43.101Z,3
2024-05-09T02:14:49.350Z,4
2024-05-09T02:15:55.614Z,3
2024-05-09T02:17:01.875Z,3
2024-05-09T02:18:07.165Z,3
2024-05-09T02:19:13.446Z,3
2024-05-09T02:20:19.724Z,4
2024-05-09T02:21:25.987Z,3
2024-05-09T02:22:32.270Z,6
2024-05-09T02:23:38.538Z,5
2024-05-09T02:24:44.813Z,5
2024-05-09T02:25:51.076Z,4
2024-05-09T02:26:57.356Z,3
2024-05-09T02:28:03.629Z,3
2024-05-09T02:29:09.890Z,3
2024-05-09T02:30:16.161Z,4
2024-05-09T02:31:22.433Z,4
2024-05-09T02:32:27.722Z,3
2024-05-09T02:33:33.991Z,4
2024-05-09T02:34:40.267Z,4
2024-05-09T02:35:46.541Z,4
2024-05-09T02:36:52.810Z,5
2024-05-09T02:37:59.086Z,4
2024-05-09T02:39:05.364Z,4
2024-05-09T02:40:11.627Z,4
2024-05-09T02:41:17.902Z,6
2024-05-09T02:42:24.169Z,6
2024-05-09T02:43:30.447Z,6
2024-05-09T02:44:36.712Z,5
2024-05-09T02:45:42.992Z,6
2024-05-09T02:46:48.273Z,6
2024-05-09T02:47:54.536Z,6
2024-05-09T02:49:00.813Z,7
2024-05-09T02:50:07.108Z,5
2024-05-09T02:51:13.360Z,5
2024-05-09T02:52:19.646Z,4
2024-05-09T02:53:25.910Z,5
2024-05-09T02:54:32.849Z,6
2024-05-09T02:55:38.581Z,6
2024-05-09T02:56:44.724Z,4
2024-05-09T02:57:50.988Z,6
2024-05-09T02:58:57.263Z,6
2024-05-09T03:00:03.532Z,5
2024-05-09T03:01:08.825Z,5
2024-05-09T03:02:15.105Z,5
2024-05-09T03:03:21.361Z,6
2024-05-09T03:04:27.647Z,5
2024-05-09T03:05:33.913Z,4
2024-05-09T03:06:40.188Z,4
2024-05-09T03:07:46.466Z,4
2024-05-09T03:08:52.737Z,3
2024-05-09T03:09:58.998Z,2
2024-05-09T03:11:05.268Z,2
2024-05-09T03:12:11.543Z,4
2024-05-09T03:13:17.809Z,4
2024-05-09T03:14:24.091Z,5
2024-05-09T03:15:29.374Z,4
2024-05-09T03:16:35.637Z,4
2024-05-09T03:17:41.924Z,4
2024-05-09T03:18:48.190Z,6
2024-05-09T03:19:54.475Z,4
2024-05-09T03:21:00.734Z,5
2024-05-09T03:22:07.004Z,6
2024-05-09T03:23:13.285Z,5
2024-05-09T03:24:19.551Z,6
2024-05-09T03:25:25.822Z,5
2024-05-09T03:26:32.092Z,6
2024-05-09T03:27:38.363Z,4
2024-05-09T03:28:44.627Z,4
2024-05-09T03:29:49.918Z,5
2024-05-09T03:30:56.192Z,5
2024-05-09T03:32:02.464Z,5
2024-05-09T03:33:08.747Z,5
2024-05-09T03:34:15.011Z,4
2024-05-09T03:35:21.286Z,5
2024-05-09T03:36:27.546Z,4
2024-05-09T03:37:33.835Z,5
2024-05-09T03:38:40.101Z,5
2024-05-09T03:39:46.380Z,5
2024-05-09T03:40:52.827Z,6
2024-05-09T03:41:58.914Z,6
2024-05-09T03:43:05.185Z,7
2024-05-09T03:44:10.474Z,6
2024-05-09T03:45:16.747Z,7
2024-05-09T03:46:23.009Z,7
2024-05-09T03:47:29.297Z,6
2024-05-09T03:48:35.571Z,6
2024-05-09T03:49:41.842Z,4
2024-05-09T03:50:48.104Z,3
2024-05-09T03:51:54.385Z,4
2024-05-09T03:53:00.644Z,3
2024-05-09T03:54:06.945Z,3
2024-05-09T03:55:13.178Z,3
2024-05-09T03:56:19.496Z,2
2024-05-09T03:57:25.744Z,2
2024-05-09T03:58:31.027Z,1
2024-05-09T03:59:37.309Z,2
2024-05-09T04:00:43.624Z,2
2024-05-09T04:01:49.839Z,2
2024-05-09T04:02:56.102Z,2
2024-05-09T04:04:02.382Z,2
2024-05-09T04:05:08.659Z,2
2024-05-09T04:06:14.934Z,2
2024-05-09T04:07:21.229Z,3
2024-05-09T04:08:27.478Z,2
2024-05-09T04:09:33.741Z,2
2024-05-09T04:10:40.009Z,2
2024-05-09T04:11:46.300Z,2
2024-05-09T04:12:52.558Z,2
2024-05-09T04:13:57.848Z,1
2024-05-09T04:15:04.113Z,1
2024-05-09T04:16:10.400Z,2
2024-05-09T04:17:16.665Z,2
2024-05-09T04:18:22.929Z,3
2024-05-09T04:19:29.207Z,1
2024-05-09T04:20:35.496Z,3
2024-05-09T04:21:41.750Z,2
2024-05-09T04:22:48.022Z,4
2024-05-09T04:23:54.297Z,3
2024-05-09T04:25:00.568Z,3
2024-05-09T04:26:06.833Z,4
2024-05-09T04:27:13.108Z,2
2024-05-09T04:28:18.396Z,2
2024-05-09T04:29:24.667Z,0
2024-05-09T04:30:30.936Z,2
2024-05-09T04:31:37.232Z,3
2024-05-09T04:32:43.480Z,2
2024-05-09T04:33:49.756Z,2
2024-05-09T04:34:56.031Z,2
2024-05-09T04:36:02.928Z,2
2024-05-09T04:37:08.569Z,2
2024-05-09T04:38:14.845Z,2
2024-05-09T04:39:21.110Z,3
2024-05-09T04:40:27.385Z,1
2024-05-09T04:41:33.704Z,3
2024-05-09T04:42:38.946Z,4
2024-05-09T04:43:45.242Z,2
2024-05-09T04:44:51.489Z,1
2024-05-09T04:45:57.798Z,2
2024-05-09T04:47:04.028Z,2
2024-05-09T04:48:10.308Z,0
2024-05-09T04:49:16.563Z,1
2024-05-09T04:50:22.847Z,1
2024-05-09T04:51:29.127Z,3
2024-05-09T04:52:35.398Z,1
2024-05-09T04:53:41.675Z,0
2024-05-09T04:54:47.938Z,1
2024-05-09T04:55:54.248Z,1
2024-05-09T04:56:59.556Z,0
2024-05-09T04:58:05.794Z,0
2024-05-09T04:59:12.137Z,-1
2024-05-09T05:00:18.310Z,0
2024-05-09T05:01:24.642Z,1
2024-05-09T05:02:30.874Z,2
2024-05-09T05:03:37.120Z,1
2024-05-09T05:04:43.418Z,1
2024-05-09T05:05:49.665Z,0
2024-05-09T05:06:55.932Z,0
2024-05-09T05:08:02.217Z,1
2024-05-09T05:09:08.485Z,0
2024-05-09T05:10:14.766Z,1
2024-05-09T05:11:20.054Z,1
2024-05-09T05:12:26.319Z,0
2024-05-09T05:13:32.589Z,1
2024-05-09T05:14:38.865Z,3
2024-05-09T05:15:45.134Z,1
2024-05-09T05:16:51.404Z,0
2024-05-09T05:17:57.670Z,0
2024-05-09T05:19:03.950Z,0
2024-05-09T05:20:10.222Z,0
2024-05-09T05:21:16.528Z,0
2024-05-09T05:22:22.767Z,1
2024-05-09T05:23:29.070Z,0
2024-05-09T05:24:35.307Z,0
2024-05-09T05:25:40.602Z,0
2024-05-09T05:26:46.869Z,1
2024-05-09T05:27:53.133Z,0
2024-05-09T05:28:59.438Z,-1
2024-05-09T05:30:05.681Z,-1
2024-05-09T05:31:10.979Z,-1
2024-05-09T05:32:17.253Z,-1
2024-05-09T05:33:23.658Z,-1
2024-05-09T05:34:29.790Z,0
2024-05-09T05:35:36.067Z,0
2024-05-09T05:36:42.338Z,-1
2024-05-09T05:37:48.607Z,-1
2024-05-09T05:38:54.934Z,-1
2024-05-09T05:40:01.151Z,-2
2024-05-09T05:41:07.434Z,-1
2024-05-09T05:42:13.695Z,-2
2024-05-09T05:43:19.987Z,-1
2024-05-09T05:44:26.233Z,0
2024-05-09T05:45:31.548Z,0
2024-05-09T05:46:37.789Z,0
2024-05-09T05:47:44.067Z,1
2024-05-09T05:48:50.345Z,0
2024-05-09T05:49:56.616Z,2
2024-05-09T05:51:02.883Z,1
2024-05-09T05:52:09.155Z,0
2024-05-09T05:53:15.458Z,1
2024-05-09T05:54:21.709Z,2
2024-05-09T05:55:27.976Z,2
2024-05-09T05:56:34.249Z,1
2024-05-09T05:57:40.520Z,0
2024-05-09T05:58:46.845Z,-1
2024-05-09T05:59:52.073Z,0
2024-05-09T06:00:58.349Z,0
2024-05-09T06:02:04.622Z,1
2024-05-09T06:03:10.932Z,2
2024-05-09T06:04:17.166Z,0
2024-05-09T06:05:23.436Z,-1
2024-05-09T06:06:29.742Z,-1
2024-05-09T06:07:35.975Z,-1
2024-05-09T06:08:42.433Z,-1
2024-05-09T06:09:48.534Z,0
2024-05-09T06:10:54.794Z,0
2024-05-09T06:12:01.067Z,0
2024-05-09T06:13:07.357Z,-1
2024-05-09T06:14:12.623Z,0
2024-05-09T06:15:18.918Z,-1
2024-05-09T06:16:26.001Z,-1
2024-05-09T06:17:31.441Z,0
2024-05-09T06:18:37.716Z,-1
2024-05-09T06:19:43.987Z,0
2024-05-09T06:20:50.363Z,-1
2024-05-09T06:21:56.526Z,-1
2024-05-09T06:23:02.804Z,-1
2024-05-09T06:24:09.088Z,0
2024-05-09T06:25:15.359Z,-1
2024-05-09T06:26:21.620Z,0
2024-05-09T06:27:27.888Z,-1
2024-05-09T06:28:33.186Z,-2
2024-05-09T06:29:39.454Z,-2
2024-05-09T06:30:45.744Z,-2
2024-05-09T06:31:51.992Z,-2
2024-05-09T06:32:58.263Z,-1
2024-05-09T06:34:04.550Z,-2
2024-05-09T06:35:10.801Z,-1
2024-05-09T06:36:17.311Z,-2
2024-05-09T06:37:23.408Z,-2
2024-05-09T06:38:29.684Z,-2
2024-05-09T06:39:35.900Z,-1
2024-05-09T06:40:42.266Z,-1
2024-05-09T06:41:48.476Z,-2
2024-05-09T06:42:53.734Z,-3
2024-05-09T06:44:00.009Z,-3
2024-05-09T06:45:06.276Z,-1
2024-05-09T06:46:12.579Z,0
2024-05-09T06:47:18.829Z,-2
2024-05-09T06:48:25.188Z,-1
2024-05-09T06:49:31.367Z,-2
2024-05-09T06:50:37.629Z,-1
2024-05-09T06:51:44.064Z,-2
2024-05-09T06:52:50.181Z,-1
2024-05-09T06:53:56.525Z,-1
2024-05-09T06:55:02.731Z,-2
2024-05-09T06:56:08.987Z,-1
2024-05-09T06:57:14.434Z,-2
2024-05-09T06:58:20.558Z,-2
2024-05-09T06:59:26.886Z,-3
2024-05-09T07:00:33.124Z,-3
2024-05-09T07:01:39.372Z,-3
2024-05-09T07:02:45.682Z,-3
2024-05-09T07:03:52.142Z,-4
2024-05-09T07:04:58.297Z,-4
2024-05-09T07:06:04.464Z,-4
2024-05-09T07:07:10.749Z,-2
2024-05-09T07:08:17.104Z,-4
2024-05-09T07:09:23.283Z,-3
2024-05-09T07:10:29.538Z,-3
2024-05-09T07:11:34.831Z,-3
2024-05-09T07:12:41.112Z,-3
2024-05-09T07:13:47.554Z,-3
2024-05-09T07:14:53.765Z,-4
2024-05-09T07:15:59.967Z,-3
2024-05-09T07:17:06.196Z,-3
2024-05-09T07:18:12.480Z,-2
2024-05-09T07:19:18.924Z,-2
2024-05-09T07:20:25.027Z,-4
2024-05-09T07:21:31.290Z,-3
2024-05-09T07:22:37.556Z,-2
2024-05-09T07:23:43.836Z,-2
2024-05-09T07:24:50.105Z,-2
2024-05-09T07:25:55.434Z,-3
2024-05-09T07:27:01.692Z,-3
2024-05-09T07:28:07.943Z,-4
2024-05-09T07:29:14.213Z,-2
2024-05-09T07:30:20.478Z,-4
2024-05-09T07:31:26.822Z,-3
2024-05-09T07:32:33.019Z,-3
2024-05-09T07:33:39.293Z,-3
2024-05-09T07:34:45.575Z,-4
2024-05-09T07:35:51.832Z,-4
2024-05-09T07:36:58.112Z,-4
2024-05-09T07:38:04.378Z,-5
2024-05-09T07:39:10.734Z,-3
2024-05-09T07:40:15.942Z,-3
2024-05-09T07:41:22.284Z,-3
2024-05-09T07:42:28.491Z,-3
2024-05-09T07:43:34.928Z,-1
2024-05-09T07:44:41.061Z,0
2024-05-09T07:45:47.299Z,-1
2024-05-09T07:46:53.573Z,-2
2024-05-09T07:47:59.849Z,-3
2024-05-09T07:49:06.109Z,-3
2024-05-09T07:50:12.387Z,-4
2024-05-09T07:51:18.657Z,-5
2024-05-09T07:52:24.929Z,-5
2024-05-09T07:53:31.199Z,-4
2024-05-09T07:54:37.470Z,-4
2024-05-09T07:55:42.784Z,-3
2024-05-09T07:56:49.091Z,-5
2024-05-09T07:57:55.308Z,-4
2024-05-09T07:59:01.954Z,-4
2024-05-09T08:00:08.975Z,-4
2024-05-09T08:01:14.142Z,-5
2024-05-09T08:02:20.416Z,-5
2024-05-09T08:03:26.687Z,-5
2024-05-09T08:04:32.975Z,-4
2024-05-09T08:05:39.215Z,-3
2024-05-09T08:06:45.485Z,-4
2024-05-09T08:07:51.752Z,-3
2024-05-09T08:08:58.029Z,-4
2024-05-09T08:10:03.316Z,-5
2024-05-09T08:11:09.595Z,-5
2024-05-09T08:12:15.918Z,-5
2024-05-09T08:13:22.423Z,-4
2024-05-09T08:14:28.397Z,-5
2024-05-09T08:15:34.663Z,-5
2024-05-09T08:16:40.939Z,-5
2024-05-09T08:17:47.222Z,-5
2024-05-09T08:18:53.484Z,-5
2024-05-09T08:19:59.762Z,-6
2024-05-09T08:21:06.036Z,-5
2024-05-09T08:22:12.299Z,-5
2024-05-09T08:23:18.589Z,-5
2024-05-09T08:24:23.966Z,-5
2024-05-09T08:25:30.126Z,-6
2024-05-09T08:26:36.402Z,-5
2024-05-09T08:27:42.679Z,-5
2024-05-09T08:28:48.947Z,-5
2024-05-09T08:29:55.222Z,-5
2024-05-09T08:31:01.501Z,-5
2024-05-09T08:32:07.768Z,-4
2024-05-09T08:33:14.046Z,-5
2024-05-09T08:34:20.305Z,-5
2024-05-09T08:35:26.584Z,-4
2024-05-09T08:36:32.855Z,-5
2024-05-09T08:37:39.136Z,-5
2024-05-09T08:38:44.415Z,-4
2024-05-09T08:39:50.688Z,-4
2024-05-09T08:40:57.063Z,-3
2024-05-09T08:42:03.478Z,-3
2024-05-09T08:43:09.614Z,-3
2024-05-09T08:44:15.775Z,-4
2024-05-09T08:45:22.045Z,-4
2024-05-09T08:46:28.329Z,-5
2024-05-09T08:47:34.638Z,-5
2024-05-09T08:48:40.975Z,-5
2024-05-09T08:49:47.209Z,-5
2024-05-09T08:50:53.561Z,-5
2024-05-09T08:51:59.688Z,-4
2024-05-09T08:53:04.967Z,-5
2024-05-09T08:54:11.277Z,-5
2024-05-09T08:55:17.513Z,-4
2024-05-09T08:56:23.905Z,-4
2024-05-09T08:57:30.059Z,-5
2024-05-09T08:58:36.356Z,-4
2024-05-09T08:59:42.650Z,-4
2024-05-09T09:00:48.914Z,-4
2024-05-09T09:01:55.143Z,-4
2024-05-09T09:03:01.413Z,-5
2024-05-09T09:04:07.820Z,-6
2024-05-09T09:05:13.963Z,-6
2024-05-09T09:06:20.254Z,-4
2024-05-09T09:07:25.514Z,-4
2024-05-09T09:08:31.898Z,-5
2024-05-09T09:09:38.055Z,-5
2024-05-09T09:10:44.320Z,-4
2024-05-09T09:11:50.607Z,-5
2024-05-09T09:12:55.899Z,-4
2024-05-09T09:14:02.267Z,-4
2024-05-09T09:15:08.478Z,-4
2024-05-09T09:16:14.701Z,-4
2024-05-09T09:17:20.985Z,-5
2024-05-09T09:18:27.247Z,-4
2024-05-09T09:19:33.551Z,-5
2024-05-09T09:20:39.793Z,-5
2024-05-09T09:21:46.072Z,-5
2024-05-09T09:22:52.337Z,-5
2024-05-09T09:23:58.610Z,-4
2024-05-09T09:25:04.882Z,-4
2024-05-09T09:26:11.156Z,-6
2024-05-09T09:27:16.444Z,-5
2024-05-09T09:28:22.708Z,-5
2024-05-09T09:29:28.979Z,-5
2024-05-09T09:30:35.242Z,-5
2024-05-09T09:31:41.610Z,-6
2024-05-09T09:32:47.797Z,-6
2024-05-09T09:33:54.070Z,-6
2024-05-09T09:35:00.382Z,-5
2024-05-09T09:36:06.641Z,-5
2024-05-09T09:37:12.880Z,-5
2024-05-09T09:38:19.158Z,-5
2024-05-09T09:39:26.262Z,-6
2024-05-09T09:40:32.084Z,-7
2024-05-09T09:41:37.004Z,-7
2024-05-09T09:42:43.262Z,-5
2024-05-09T09:43:49.713Z,-6
2024-05-09T09:44:55.802Z,-6
2024-05-09T09:46:02.111Z,-6
2024-05-09T09:47:08.347Z,-6
2024-05-09T09:48:14.623Z,-7
2024-05-09T09:49:20.898Z,-5
2024-05-09T09:50:27.173Z,-6
2024-05-09T09:51:33.475Z,-6
2024-05-09T09:52:39.700Z,-6
2024-05-09T09:53:46.111Z,-6
2024-05-09T09:54:52.262Z,-5
2024-05-09T09:55:57.547Z,-7
2024-05-09T09:57:03.815Z,-7
2024-05-09T09:58:10.100Z,-7
2024-05-09T09:59:16.368Z,-7
2024-05-09T10:00:22.621Z,-5
2024-05-09T10:01:29.039Z,-6
2024-05-09T10:02:35.169Z,-6
2024-05-09T10:03:41.448Z,-7
2024-05-09T10:04:47.720Z,-6
2024-05-09T10:05:54.001Z,-7
2024-05-09T10:07:00.265Z,-7
2024-05-09T10:08:06.530Z,-6
2024-05-09T10:09:12.805Z,-7
2024-05-09T10:10:18.123Z,-6
2024-05-09T10:11:24.366Z,-5
2024-05-09T10:12:30.650Z,-6
2024-05-09T10:13:36.920Z,-6
2024-05-09T10:14:43.188Z,-7
2024-05-09T10:15:49.466Z,-7
2024-05-09T10:16:55.725Z,-8
2024-05-09T10:18:02.004Z,-7
2024-05-09T10:19:08.347Z,-7
2024-05-09T10:20:14.543Z,-7
2024-05-09T10:21:20.837Z,-6
2024-05-09T10:22:27.121Z,-8
2024-05-09T10:23:33.399Z,-6
2024-05-09T10:24:38.676Z,-7
2024-05-09T10:25:44.928Z,-7
2024-05-09T10:26:51.382Z,-7
2024-05-09T10:27:57.598Z,-7
2024-05-09T10:29:03.899Z,-7
2024-05-09T10:30:10.015Z,-8
2024-05-09T10:31:16.422Z,-8
2024-05-09T10:32:22.629Z,-6
2024-05-09T10:33:28.953Z,-7
2024-05-09T10:34:35.100Z,-7
2024-05-09T10:35:41.390Z,-6
2024-05-09T10:36:47.668Z,-6
2024-05-09T10:37:53.909Z,-6
2024-05-09T10:38:59.301Z,-6
2024-05-09T10:40:05.614Z,-7
2024-05-09T10:41:11.900Z,-7
2024-05-09T10:42:18.105Z,-6
2024-05-09T10:43:24.338Z,-7
2024-05-09T10:44:30.602Z,-7
2024-05-09T10:45:36.835Z,-6
2024-05-09T10:46:43.095Z,-5
2024-05-09T10:47:49.483Z,-5
2024-05-09T10:48:55.687Z,-6
2024-05-09T10:50:01.907Z,-6
2024-05-09T10:51:08.200Z,-6
2024-05-09T10:52:14.449Z,-6
2024-05-09T10:53:19.749Z,-7
2024-05-09T10:54:26.179Z,-6
2024-05-09T10:55:32.290Z,-7
2024-05-09T10:56:38.556Z,-7
2024-05-09T10:57:44.829Z,-6
2024-05-09T10:58:51.224Z,-6
2024-05-09T10:59:57.388Z,-6
2024-05-09T11:01:03.643Z,-7
2024-05-09T11:02:09.907Z,-7
2024-05-09T11:03:16.397Z,-7
2024-05-09T11:04:22.540Z,-7
2024-05-09T11:05:28.765Z,-6
2024-05-09T11:06:35.031Z,-6
2024-05-09T11:07:40.296Z,-6
2024-05-09T11:08:46.597Z,-7
2024-05-09T11:09:52.844Z,-8
2024-05-09T11:10:59.120Z,-7
2024-05-09T11:12:05.407Z,-6
2024-05-09T11:13:11.655Z,-5
2024-05-09T11:14:17.995Z,-6
2024-05-09T11:15:24.226Z,-6
2024-05-09T11:16:30.621Z,-6
2024-05-09T11:17:36.932Z,-6
2024-05-09T11:18:43.028Z,-5
2024-05-09T11:19:49.286Z,-6
2024-05-09T11:20:55.559Z,-5
2024-05-09T11:22:02.055Z,-5
2024-05-09T11:23:07.199Z,-7
2024-05-09T11:24:13.453Z,-5
2024-05-09T11:25:19.662Z,-6
2024-05-09T11:26:26.087Z,-6
2024-05-09T11:27:32.203Z,-6
2024-05-09T11:28:38.534Z,-6
2024-05-09T11:29:44.782Z,-6
2024-05-09T11:30:51.032Z,-6
2024-05-09T11:31:57.293Z,-6
2024-05-09T11:33:03.567Z,-6
2024-05-09T11:34:09.838Z,-5
2024-05-09T11:35:16.124Z,-6
2024-05-09T11:36:21.502Z,-5
2024-05-09T11:37:27.759Z,-5
2024-05-09T11:38:33.947Z,-6
2024-05-09T11:39:40.208Z,-6
2024-05-09T11:40:46.498Z,-6
2024-05-09T11:41:52.756Z,-7
2024-05-09T11:42:59.048Z,-6
2024-05-09T11:44:05.322Z,-7
2024-05-09T11:45:11.581Z,-6
2024-05-09T11:46:17.914Z,-6
2024-05-09T11:47:24.124Z,-6
2024-05-09T11:48:30.396Z,-7
2024-05-09T11:49:36.654Z,-6
2024-05-09T11:50:41.961Z,-7
2024-05-09T11:51:48.221Z,-7
2024-05-09T11:52:54.584Z,-6
2024-05-09T11:54:00.772Z,-5
2024-05-09T11:55:07.055Z,-5
2024-05-09T11:56:13.392Z,-6
2024-05-09T11:57:19.588Z,-5
2024-05-09T11:58:25.849Z,-7
2024-05-09T11:59:32.138Z,-8
2024-05-09T12:00:38.391Z,-6
2024-05-09T12:01:44.680Z,-6
2024-05-09T12:02:50.973Z,-7
2024-05-09T12:03:57.212Z,-7
2024-05-09T12:05:02.516Z,-6
2024-05-09T12:06:08.788Z,-7
2024-05-09T12:07:15.053Z,-7
2024-05-09T12:08:21.325Z,-6
2024-05-09T12:09:27.668Z,-7
2024-05-09T12:10:33.942Z,-6
2024-05-09T12:11:40.139Z,-6
2024-05-09T12:12:46.414Z,-6
2024-05-09T12:13:52.684Z,-6
2024-05-09T12:14:58.957Z,-7
2024-05-09T12:16:05.235Z,-6
2024-05-09T12:17:11.507Z,-6
2024-05-09T12:18:17.878Z,-7
2024-05-09T12:19:23.066Z,-6
2024-05-09T12:20:29.330Z,-6
2024-05-09T12:21:35.617Z,-8
2024-05-09T12:22:41.923Z,-7
2024-05-09T12:23:48.145Z,-7
2024-05-09T12:24:54.421Z,-7
2024-05-09T12:26:00.747Z,-7
2024-05-09T12:27:06.950Z,-6
2024-05-09T12:28:13.256Z,-7
2024-05-09T12:29:19.498Z,-6
2024-05-09T12:30:25.780Z,-6
2024-05-09T12:31:32.069Z,-7
2024-05-09T12:32:38.327Z,-7
2024-05-09T12:33:43.615Z,-6
2024-05-09T12:34:49.876Z,-5
2024-05-09T12:35:56.238Z,-6
2024-05-09T12:37:02.436Z,-7
2024-05-09T12:38:08.725Z,-6
2024-05-09T12:39:14.958Z,-6
2024-05-09T12:40:21.246Z,-7
2024-05-09T12:41:27.516Z,-4
2024-05-09T12:42:33.789Z,-5
2024-05-09T12:43:40.055Z,-6
2024-05-09T12:44:46.335Z,-5
2024-05-09T12:45:52.611Z,-6
2024-05-09T12:46:58.875Z,-5
2024-05-09T12:48:04.163Z,-5
2024-05-09T12:49:10.442Z,-6
2024-05-09T12:50:16.712Z,-5
2024-05-09T12:51:22.990Z,-6
2024-05-09T12:52:29.254Z,-6
2024-05-09T12:53:35.529Z,-7
2024-05-09T12:54:40.816Z,-6
2024-05-09T12:55:47.118Z,-7
2024-05-09T12:56:53.364Z,-7
2024-05-09T12:57:59.681Z,-7
2024-05-09T12:59:06.130Z,-7
2024-05-09T13:00:12.188Z,-6
2024-05-09T13:01:18.447Z,-6
2024-05-09T13:02:25.245Z,-7
2024-05-09T13:04:37.485Z,-6
2024-05-09T13:05:43.647Z,-6
2024-05-09T13:06:49.849Z,-7
2024-05-09T13:07:56.231Z,-6
2024-05-09T13:09:01.375Z,-6
2024-05-09T13:10:07.652Z,-6
2024-05-09T13:11:13.914Z,-7
2024-05-09T13:12:20.282Z,-6
2024-05-09T13:13:26.558Z,-6
2024-05-09T13:14:32.803Z,-6
2024-05-09T13:15:39.073Z,-7
2024-05-09T13:16:45.384Z,-7
2024-05-09T13:17:51.541Z,-6
2024-05-09T13:18:57.834Z,-6
2024-05-09T13:20:04.095Z,-8
2024-05-09T13:21:10.360Z,-7
2024-05-09T13:22:16.653Z,-6
2024-05-09T13:23:21.962Z,-7
2024-05-09T13:24:28.320Z,-7
2024-05-09T13:25:34.464Z,-6
2024-05-09T13:26:40.745Z,-7
2024-05-09T13:27:47.018Z,-7
2024-05-09T13:28:53.283Z,-5
2024-05-09T13:29:59.566Z,-6
2024-05-09T13:31:05.834Z,-6
2024-05-09T13:32:12.095Z,-6
2024-05-09T13:33:18.395Z,-7
2024-05-09T13:34:24.828Z,-6
2024-05-09T13:35:30.916Z,-7
2024-05-09T13:36:37.189Z,-7
2024-05-09T13:37:42.469Z,-7
2024-05-09T13:38:48.745Z,-7
2024-05-09T13:39:55.038Z,-6
2024-05-09T13:41:01.320Z,-8
2024-05-09T13:42:07.560Z,-7
2024-05-09T13:43:13.838Z,-7
2024-05-09T13:44:20.109Z,-7
2024-05-09T13:45:26.380Z,-6
2024-05-09T13:46:32.695Z,-5
2024-05-09T13:47:38.928Z,-6
2024-05-09T13:48:45.227Z,-7
2024-05-09T13:49:51.485Z,-7
2024-05-09T13:50:57.766Z,-7
2024-05-09T13:52:03.046Z,-7
2024-05-09T13:53:09.317Z,-7
2024-05-09T13:54:15.568Z,-7
2024-05-09T13:55:21.835Z,-7
2024-05-09T13:56:28.190Z,-7
2024-05-09T13:57:34.467Z,-6
2024-05-09T13:58:40.669Z,-5
2024-05-09T13:59:46.924Z,-6
2024-05-09T14:00:53.205Z,-6
2024-05-09T14:01:59.472Z,-8
2024-05-09T14:03:05.749Z,-7
2024-05-09T14:04:12.025Z,-6
2024-05-09T14:05:18.292Z,-6
2024-05-09T14:06:23.812Z,-7
2024-05-09T14:07:29.854Z,-6
2024-05-09T14:08:36.152Z,-6
2024-05-09T14:09:42.398Z,-6
2024-05-09T14:10:48.698Z,-6
2024-05-09T14:11:54.937Z,-6
2024-05-09T14:13:01.308Z,-7
2024-05-09T14:14:07.667Z,-7
2024-05-09T14:15:13.778Z,-7
2024-05-09T14:16:20.095Z,-8
2024-05-09T14:17:26.323Z,-7
2024-05-09T14:18:32.756Z,-7
2024-05-09T14:19:38.851Z,-6
2024-05-09T14:20:45.139Z,-7
2024-05-09T14:21:50.405Z,-7
2024-05-09T14:22:56.676Z,-6
2024-05-09T14:24:02.954Z,-9
2024-05-09T14:25:09.321Z,-8
2024-05-09T14:26:15.500Z,-7
2024-05-09T14:27:21.768Z,-7
2024-05-09T14:28:28.310Z,-6
2024-05-09T14:29:34.313Z,-6
2024-05-09T14:30:40.745Z,-5
2024-05-09T14:31:46.860Z,-6
2024-05-09T14:32:53.153Z,-6
2024-05-09T14:33:59.412Z,-7
2024-05-09T14:35:05.667Z,-7
2024-05-09T14:36:11.016Z,-8
2024-05-09T14:37:17.285Z,-7
2024-05-09T14:38:23.642Z,-7
2024-05-09T14:39:29.797Z,-7
2024-05-09T14:40:36.079Z,-8
2024-05-09T14:41:42.312Z,-6
2024-05-09T14:42:48.604Z,-7
2024-05-09T14:43:55.195Z,-7
2024-05-09T14:45:01.134Z,-8
2024-05-09T14:46:08.266Z,-7
2024-05-09T14:47:13.823Z,-7
2024-05-09T14:48:20.005Z,-7
2024-05-09T14:49:26.224Z,-7
2024-05-09T14:50:31.516Z,-8
2024-05-09T14:51:37.841Z,-7
2024-05-09T14:52:44.055Z,-7
2024-05-09T14:53:50.435Z,-8
2024-05-09T14:54:56.597Z,-8
2024-05-09T14:56:02.879Z,-8
2024-05-09T14:57:09.142Z,-8
2024-05-09T14:58:15.539Z,-6
2024-05-09T14:59:21.690Z,-8
2024-05-09T15:00:27.964Z,-7
2024-05-09T15:01:34.229Z,-7
2024-05-09T15:02:40.508Z,-8
2024-05-09T15:03:46.894Z,-7
2024-05-09T15:04:52.069Z,-8
2024-05-09T15:05:58.454Z,-8
2024-05-09T15:07:04.611Z,-7
2024-05-09T15:08:10.898Z,-7
2024-05-09T15:09:17.296Z,-6
2024-05-09T15:10:23.420Z,-8
2024-05-09T15:11:29.848Z,-8
2024-05-09T15:12:35.967Z,-7
2024-05-09T15:13:42.259Z,-7
2024-05-09T15:14:48.542Z,-6
2024-05-09T15:15:54.868Z,-6
2024-05-09T15:17:01.094Z,-7
2024-05-09T15:18:07.403Z,-7
2024-05-09T15:19:12.617Z,-7
2024-05-09T15:20:18.903Z,-7
2024-05-09T15:21:25.224Z,-7
2024-05-09T15:22:31.429Z,-6
2024-05-09T15:23:37.752Z,-6
2024-05-09T15:24:43.983Z,-7
2024-05-09T15:25:50.472Z,-7
2024-05-09T15:26:56.535Z,-7
2024-05-09T15:28:02.797Z,-7
2024-05-09T15:29:09.133Z,-8
2024-05-09T15:30:15.346Z,-8
2024-05-09T15:31:21.607Z,-6
2024-05-09T15:32:27.897Z,-7
2024-05-09T15:33:33.190Z,-5
2024-05-09T15:34:39.459Z,-8
2024-05-09T15:35:45.720Z,-6
2024-05-09T15:36:52.035Z,-5
2024-05-09T15:37:58.279Z,-7
2024-05-09T15:39:04.527Z,-6
2024-05-09T15:40:10.802Z,-7
2024-05-09T15:41:17.081Z,-8
2024-05-09T15:42:23.343Z,-7
2024-05-09T15:43:29.659Z,-5
2024-05-09T15:44:35.892Z,-7
2024-05-09T15:45:42.182Z,-7
2024-05-09T15:46:48.590Z,-8
2024-05-09T15:47:53.724Z,-7
2024-05-09T15:49:00.024Z,-7
2024-05-09T15:50:06.262Z,-8
2024-05-09T15:51:12.618Z,-6
2024-05-09T15:52:18.850Z,-6
2024-05-09T15:53:25.170Z,-7
2024-05-09T15:54:31.634Z,-7
2024-05-09T15:55:37.702Z,-7
2024-05-09T15:56:44.000Z,-6
2024-05-09T15:57:50.167Z,-8